• Join FlightAware (Why Join?)
  • Login
  • US Flag 
04:08AM EDT


 

Airport Tracker/Info


-or-


 

Live Flight TrackerFlight Track Log ✈ N72CD ✈ 10-May-2012 ✈ KARR - KJVL

Flight Track Log - Related Links

Times and Time Zones

All times are in EDT time to prevent confusion due to time zone crossing. See the N72CD flight status page for this flight to view local times or setup timezone preferences in your user account.

Time Position Orientation Groundspeed Altitude Reporting Facility
EDT Latitude Longitude Course Direction KTS MPH feet Rate Location/Type
07:59PM 41.8000 -88.5667 270° West 120 138 2,200  Level Chicago TRACON
08:00PM 41.8000 -88.6167 North 112 129 2,800 600 Climbing Chicago TRACON
08:07PM 41.9781 -88.6067 334° Northwest  Level FlightAware Approximate
08:08PM 42.0023 -88.6229 334° Northwest  Level FlightAware Approximate
08:09PM 42.0264 -88.6391 334° Northwest  Level FlightAware Approximate
08:10PM 42.0506 -88.6554 333° Northwest  Level FlightAware Approximate
08:11PM 42.0748 -88.6716 333° Northwest  Level FlightAware Approximate
08:12PM 42.0989 -88.6879 333° Northwest  Level FlightAware Approximate
08:13PM 42.1231 -88.7041 350° North  Level FlightAware Approximate
08:14PM 42.1478 -88.7101 333° Northwest  Level FlightAware Approximate
08:15PM 42.1718 -88.7269 333° Northwest  Level FlightAware Approximate
08:16PM 42.1958 -88.7436 333° Northwest  Level FlightAware Approximate
08:17PM 42.2198 -88.7604 333° Northwest  Level FlightAware Approximate
08:18PM 42.2437 -88.7772 333° Northwest  Level FlightAware Approximate
08:19PM 42.2677 -88.7940 333° Northwest  Level FlightAware Approximate
08:20PM 42.2917 -88.8108 333° Northwest  Level FlightAware Approximate
08:21PM 42.3156 -88.8277 333° Northwest  Level FlightAware Approximate
08:22PM 42.3396 -88.8445 333° Northwest  Level FlightAware Approximate
08:23PM 42.3636 -88.8614 333° Northwest  Level FlightAware Approximate
08:24PM 42.3875 -88.8782 333° Northwest  Level FlightAware Approximate
08:25PM 42.4115 -88.8951 332° Northwest  Level FlightAware Approximate
08:26PM 42.4354 -88.9120 332° Northwest  Level FlightAware Approximate
08:27PM 42.4594 -88.9289 333° Northwest  Level FlightAware Approximate
08:28PM 42.4835 -88.9453 332° Northwest  Level FlightAware Approximate
08:29PM 42.5074 -88.9624 332° Northwest  Level FlightAware Approximate
08:30PM 42.5313 -88.9795 332° Northwest  Level FlightAware Approximate
08:31PM 42.5552 -88.9966 332° Northwest  Level FlightAware Approximate
08:32PM 42.5791 -89.0136 338° Northwest  Level FlightAware Approximate
08:33PM 42.6042 -89.0271 326° Northwest  Level FlightAware Approximate
08:34PM 42.6267 -89.0474 134° Southeast  Level Estimated
08:35PM 42.6167 -89.0333 301° West  Level FlightAware Approximate
08:36PM 42.6304 -89.0649 121° Southeast  Level Estimated
08:37PM 42.6167 -89.0333 301° West  Level FlightAware Approximate
08:38PM 42.6304 -89.0649 121° Southeast  Level Estimated
08:39PM 42.6167 -89.0333 301° West  Level FlightAware Approximate
08:40PM 42.6304 -89.0649 301° West  Level Estimated